Time;durP1;ratioP1;P1;durP2;ratioP2;P2;SDS_P1;SDS_P2;PMS_P1;PMS_P2;Temp;Humidity;BMP_temperature;BMP_pressure;BME280_temperature;BME280_humidity;BME280_pressure;Samples;Min_cycle;Max_cycle;Signal;HPM_P1;HPM_P2
2024/01/25 00:00:57;;;;;;;8.43;2.47;;;;;;;;;;6223634;23;20474;-89
2024/01/25 00:03:23;;;;;;;10.93;2.40;;;;;;;;;;6227499;23;20438;-88
2024/01/25 00:05:49;;;;;;;11.40;3.30;;;;;;;;;;6220182;23;20461;-88
2024/01/25 00:08:15;;;;;;;7.93;2.27;;;;;;;;;;6222715;23;20425;-88
2024/01/25 00:10:41;;;;;;;12.30;2.30;;;;;;;;;;6220516;23;20479;-88
2024/01/25 00:13:07;;;;;;;6.87;3.23;;;;;;;;;;6226151;23;20414;-89
2024/01/25 00:15:33;;;;;;;10.43;2.13;;;;;;;;;;6222919;23;20717;-89
2024/01/25 00:17:59;;;;;;;6.97;2.40;;;;;;;;;;6225275;23;20379;-90
2024/01/25 00:20:25;;;;;;;8.30;2.60;;;;;;;;;;6221621;23;21184;-90
2024/01/25 00:22:51;;;;;;;8.20;3.50;;;;;;;;;;6223198;23;20386;-89
2024/01/25 00:25:17;;;;;;;9.67;1.73;;;;;;;;;;6222079;23;20386;-90
2024/01/25 00:27:44;;;;;;;8.33;3.10;;;;;;;;;;6247621;23;20433;-90
2024/01/25 00:30:11;;;;;;;8.27;2.77;;;;;;;;;;6221412;23;20397;-90
2024/01/25 00:32:36;;;;;;;10.30;3.17;;;;;;;;;;6248814;23;20431;-90
2024/01/25 00:35:03;;;;;;;9.67;2.80;;;;;;;;;;6223709;23;20378;-90
2024/01/25 00:37:29;;;;;;;13.03;3.57;;;;;;;;;;6250145;23;20367;-90
2024/01/25 00:39:55;;;;;;;5.93;2.17;;;;;;;;;;6225187;23;20427;-89
2024/01/25 00:42:22;;;;;;;5.73;1.83;;;;;;;;;;6223821;23;20378;-90
2024/01/25 00:44:48;;;;;;;5.80;2.53;;;;;;;;;;6225247;23;20386;-89
2024/01/25 00:47:14;;;;;;;9.73;2.60;;;;;;;;;;6223194;23;20508;-90
2024/01/25 00:49:40;;;;;;;12.40;2.50;;;;;;;;;;6224476;23;20379;-90
2024/01/25 00:52:06;;;;;;;10.57;2.30;;;;;;;;;;6247159;23;20355;-90
2024/01/25 00:54:33;;;;;;;13.30;2.30;;;;;;;;;;6249413;23;20436;-89
2024/01/25 00:56:59;;;;;;;6.87;2.37;;;;;;;;;;6224046;23;20381;-90
2024/01/25 00:59:25;;;;;;;7.97;3.30;;;;;;;;;;6222733;23;20379;-90
2024/01/25 01:01:51;;;;;;;4.83;2.73;;;;;;;;;;6222046;23;20720;-89
2024/01/25 01:04:23;;;;;;;12.20;3.67;;;;;;;;;;6224589;23;20410;-89
2024/01/25 01:12:11;;;;;;;10.63;3.03;;;;;;;;;;6250499;23;20414;-89
2024/01/25 01:14:37;;;;;;;16.63;3.10;;;;;;;;;;6197621;23;20393;-89
2024/01/25 01:17:03;;;;;;;10.70;3.27;;;;;;;;;;6221995;23;20376;-90
2024/01/25 01:19:29;;;;;;;14.40;3.37;;;;;;;;;;6222574;23;20439;-90
2024/01/25 01:21:55;;;;;;;7.40;2.60;;;;;;;;;;6196065;23;21149;-89
2024/01/25 01:24:24;;;;;;;10.93;3.20;;;;;;;;;;6197425;23;20385;-88
2024/01/25 01:26:50;;;;;;;6.00;1.90;;;;;;;;;;6195591;23;20404;-87
2024/01/25 01:29:18;;;;;;;10.67;2.43;;;;;;;;;;6198648;23;20394;-89
2024/01/25 01:31:44;;;;;;;4.13;1.53;;;;;;;;;;6224171;23;20358;-89
2024/01/25 01:34:12;;;;;;;9.27;3.17;;;;;;;;;;6198888;23;20362;-88
2024/01/25 01:36:38;;;;;;;9.93;2.20;;;;;;;;;;6200945;23;20370;-88
2024/01/25 01:39:05;;;;;;;7.50;1.73;;;;;;;;;;6198409;23;20378;-88
2024/01/25 01:41:31;;;;;;;11.03;4.00;;;;;;;;;;6198181;23;20386;-88
2024/01/25 01:43:57;;;;;;;9.57;2.60;;;;;;;;;;6198611;23;20438;-88
2024/01/25 01:46:34;;;;;;;6.13;2.20;;;;;;;;;;6195955;23;20740;-88
2024/01/25 01:49:00;;;;;;;15.03;2.63;;;;;;;;;;6197564;23;20425;-89
2024/01/25 01:51:26;;;;;;;10.37;2.57;;;;;;;;;;6197282;23;20378;-89
2024/01/25 01:53:53;;;;;;;16.03;2.90;;;;;;;;;;6202193;23;20862;-89
2024/01/25 01:56:19;;;;;;;11.63;3.10;;;;;;;;;;6198245;23;20386;-89
2024/01/25 01:58:44;;;;;;;10.80;2.00;;;;;;;;;;6200840;23;20397;-89
2024/01/25 02:01:10;;;;;;;8.53;2.30;;;;;;;;;;6198456;23;20395;-88
2024/01/25 02:03:36;;;;;;;13.00;3.53;;;;;;;;;;6200509;23;20402;-88
2024/01/25 02:06:03;;;;;;;6.60;1.97;;;;;;;;;;6195530;23;20625;-87
2024/01/25 02:08:29;;;;;;;11.53;3.03;;;;;;;;;;6224635;23;20418;-88
2024/01/25 02:10:55;;;;;;;12.27;3.03;;;;;;;;;;6201581;23;20616;-88
2024/01/25 02:13:22;;;;;;;10.33;2.27;;;;;;;;;;6226394;23;20381;-87
2024/01/25 02:15:48;;;;;;;6.10;3.00;;;;;;;;;;6223405;23;20434;-87
2024/01/25 02:18:14;;;;;;;6.43;2.10;;;;;;;;;;6223534;23;20386;-87
2024/01/25 02:20:40;;;;;;;8.60;2.53;;;;;;;;;;6250558;23;20975;-88
2024/01/25 02:23:06;;;;;;;14.13;4.30;;;;;;;;;;6223931;23;20853;-88
2024/01/25 02:25:32;;;;;;;20.53;2.47;;;;;;;;;;6224810;23;20397;-87
2024/01/25 02:27:58;;;;;;;12.20;2.40;;;;;;;;;;6222714;23;20979;-88
2024/01/25 02:30:24;;;;;;;7.00;3.47;;;;;;;;;;6224941;23;20390;-88
2024/01/25 02:32:50;;;;;;;4.07;2.63;;;;;;;;;;6223803;23;20374;-88
2024/01/25 02:35:16;;;;;;;13.53;2.40;;;;;;;;;;6226095;23;20374;-88
2024/01/25 02:37:42;;;;;;;6.87;2.47;;;;;;;;;;6221821;23;20374;-88
2024/01/25 02:40:08;;;;;;;6.50;2.40;;;;;;;;;;6249777;23;20370;-88
2024/01/25 02:42:34;;;;;;;9.10;2.30;;;;;;;;;;6247413;23;20377;-89
2024/01/25 02:45:00;;;;;;;7.53;2.27;;;;;;;;;;6227399;23;20908;-88
2024/01/25 02:47:26;;;;;;;10.67;3.43;;;;;;;;;;6224077;23;20541;-89
2024/01/25 02:49:52;;;;;;;10.47;2.80;;;;;;;;;;6222783;23;20446;-88
2024/01/25 02:52:18;;;;;;;11.77;3.23;;;;;;;;;;6227017;23;20856;-89
2024/01/25 02:54:44;;;;;;;4.03;2.50;;;;;;;;;;6223819;23;20381;-88
2024/01/25 02:57:10;;;;;;;2.53;1.70;;;;;;;;;;6226279;23;20465;-89
2024/01/25 02:59:36;;;;;;;9.40;2.30;;;;;;;;;;6224381;23;20864;-89
2024/01/25 03:02:05;;;;;;;8.33;2.90;;;;;;;;;;6252692;23;20373;-89
2024/01/25 03:04:31;;;;;;;11.10;2.63;;;;;;;;;;6249056;23;20847;-89
2024/01/25 03:06:57;;;;;;;9.20;2.13;;;;;;;;;;6227975;23;20497;-89
2024/01/25 03:09:23;;;;;;;14.07;3.77;;;;;;;;;;6224274;23;20652;-89
2024/01/25 03:11:49;;;;;;;7.93;3.10;;;;;;;;;;6226464;23;20968;-91
2024/01/25 03:14:15;;;;;;;15.73;2.13;;;;;;;;;;6224876;23;20378;-90
2024/01/25 03:16:41;;;;;;;9.03;3.30;;;;;;;;;;6251446;23;20377;-88
2024/01/25 03:19:07;;;;;;;8.07;3.00;;;;;;;;;;6223076;23;20860;-88
2024/01/25 03:21:33;;;;;;;9.80;2.73;;;;;;;;;;6221814;23;20417;-87
2024/01/25 03:23:59;;;;;;;9.27;2.67;;;;;;;;;;6227997;23;20383;-88
2024/01/25 03:26:27;;;;;;;15.60;3.43;;;;;;;;;;6224717;23;20396;-88
2024/01/25 03:28:53;;;;;;;8.17;2.93;;;;;;;;;;6227106;23;20417;-88
2024/01/25 03:31:19;;;;;;;11.37;2.30;;;;;;;;;;6225503;23;20371;-88
2024/01/25 03:33:45;;;;;;;7.23;2.20;;;;;;;;;;6229505;23;20371;-88
2024/01/25 03:36:13;;;;;;;11.63;3.00;;;;;;;;;;6223430;23;20379;-88
2024/01/25 03:38:39;;;;;;;9.03;2.37;;;;;;;;;;6227822;23;20387;-88
2024/01/25 03:41:05;;;;;;;12.43;3.70;;;;;;;;;;6224898;23;20397;-89
2024/01/25 03:43:31;;;;;;;5.43;2.00;;;;;;;;;;6227123;23;20469;-89
2024/01/25 03:45:57;;;;;;;5.03;2.50;;;;;;;;;;6223973;23;20917;-89
2024/01/25 03:48:23;;;;;;;7.67;2.43;;;;;;;;;;6226234;23;20468;-89
2024/01/25 03:50:49;;;;;;;13.30;2.70;;;;;;;;;;6223414;23;20845;-90
2024/01/25 03:53:15;;;;;;;8.23;2.47;;;;;;;;;;6225122;23;20371;-89
2024/01/25 03:55:41;;;;;;;13.83;2.67;;;;;;;;;;6229462;23;20389;-89
2024/01/25 03:58:08;;;;;;;4.23;1.70;;;;;;;;;;6224703;23;20738;-89
2024/01/25 04:00:34;;;;;;;7.03;2.57;;;;;;;;;;6227061;23;20405;-89
2024/01/25 04:03:00;;;;;;;6.20;3.07;;;;;;;;;;6224490;23;20413;-89
2024/01/25 04:05:26;;;;;;;5.57;2.47;;;;;;;;;;6252083;23;20429;-90
2024/01/25 04:07:52;;;;;;;5.10;2.90;;;;;;;;;;6221929;23;20406;-91
2024/01/25 04:10:18;;;;;;;6.33;2.80;;;;;;;;;;6224463;23;20386;-89
2024/01/25 04:12:44;;;;;;;5.07;2.03;;;;;;;;;;6198943;23;20378;-89
2024/01/25 04:15:10;;;;;;;9.63;2.90;;;;;;;;;;6199444;23;20742;-90
2024/01/25 04:17:36;;;;;;;13.57;3.20;;;;;;;;;;6197709;23;20382;-91
2024/01/25 04:20:02;;;;;;;6.50;2.70;;;;;;;;;;6202629;23;20374;-89
2024/01/25 04:22:28;;;;;;;5.63;2.00;;;;;;;;;;6198751;23;20394;-89
2024/01/25 04:24:54;;;;;;;8.13;3.23;;;;;;;;;;6201482;23;20456;-89
2024/01/25 04:27:20;;;;;;;7.90;2.83;;;;;;;;;;6226057;23;20418;-89
2024/01/25 04:29:47;;;;;;;12.03;3.10;;;;;;;;;;6196547;23;20383;-90
2024/01/25 04:32:13;;;;;;;2.90;2.30;;;;;;;;;;6200601;23;20507;-90
2024/01/25 04:34:39;;;;;;;7.67;2.50;;;;;;;;;;6222938;23;20362;-90
2024/01/25 04:37:05;;;;;;;8.40;3.03;;;;;;;;;;6200984;23;20370;-89
2024/01/25 04:39:31;;;;;;;8.80;2.63;;;;;;;;;;6200635;23;20386;-89
2024/01/25 04:41:57;;;;;;;8.70;3.07;;;;;;;;;;6224695;23;20453;-88
2024/01/25 04:44:23;;;;;;;8.97;3.00;;;;;;;;;;6223388;23;20375;-89
2024/01/25 04:46:49;;;;;;;11.20;3.00;;;;;;;;;;6198961;23;20433;-88
2024/01/25 04:49:15;;;;;;;6.20;4.30;;;;;;;;;;6197960;23;20441;-89
2024/01/25 04:51:41;;;;;;;6.60;2.83;;;;;;;;;;6195373;23;20382;-89
2024/01/25 04:54:11;;;;;;;8.70;2.33;;;;;;;;;;6197483;23;20389;-89
2024/01/25 04:56:37;;;;;;;16.67;3.20;;;;;;;;;;6197021;23;20378;-88
2024/01/25 04:59:03;;;;;;;8.90;2.60;;;;;;;;;;6197115;23;20521;-86
2024/01/25 05:01:29;;;;;;;8.27;2.17;;;;;;;;;;6196836;23;20386;-88
2024/01/25 05:03:55;;;;;;;11.50;2.67;;;;;;;;;;6196565;23;20386;-87
2024/01/25 05:06:21;;;;;;;9.37;4.00;;;;;;;;;;6198185;23;20737;-87
2024/01/25 05:08:47;;;;;;;11.00;2.67;;;;;;;;;;6224824;23;20410;-87
2024/01/25 05:11:13;;;;;;;8.00;3.37;;;;;;;;;;6204252;23;20409;-87
2024/01/25 05:13:39;;;;;;;16.60;2.80;;;;;;;;;;6226457;23;20378;-87
2024/01/25 05:16:05;;;;;;;12.23;3.20;;;;;;;;;;6222617;23;20374;-88
2024/01/25 05:18:31;;;;;;;10.50;3.60;;;;;;;;;;6225597;23;20386;-88
2024/01/25 05:20:57;;;;;;;11.63;3.80;;;;;;;;;;6222936;23;20437;-88
2024/01/25 05:23:23;;;;;;;10.77;3.30;;;;;;;;;;6249954;23;20370;-89
2024/01/25 05:25:49;;;;;;;10.00;2.53;;;;;;;;;;6223294;23;20380;-88
2024/01/25 05:28:17;;;;;;;13.60;2.97;;;;;;;;;;6224054;23;20414;-90
2024/01/25 05:30:43;;;;;;;13.57;3.10;;;;;;;;;;6224672;23;20491;-89
2024/01/25 05:33:09;;;;;;;7.20;3.53;;;;;;;;;;6223221;23;20477;-88
2024/01/25 05:35:35;;;;;;;6.63;2.20;;;;;;;;;;6226812;23;20423;-88
2024/01/25 05:38:01;;;;;;;6.67;2.10;;;;;;;;;;6223648;23;20390;-88
2024/01/25 05:40:27;;;;;;;14.23;2.60;;;;;;;;;;6224029;23;20387;-87
2024/01/25 05:42:53;;;;;;;4.70;2.67;;;;;;;;;;6247266;23;20377;-88
2024/01/25 05:45:21;;;;;;;8.20;3.50;;;;;;;;;;6225611;23;20725;-88
2024/01/25 05:47:47;;;;;;;7.80;2.10;;;;;;;;;;6227672;23;20417;-87
2024/01/25 05:50:13;;;;;;;15.60;6.00;;;;;;;;;;6226175;23;20387;-86
2024/01/25 05:52:39;;;;;;;6.03;3.13;;;;;;;;;;6250801;23;20362;-86
2024/01/25 05:55:05;;;;;;;13.50;3.90;;;;;;;;;;6228745;23;20378;-88
2024/01/25 05:57:32;;;;;;;10.67;2.83;;;;;;;;;;6225578;23;20467;-87
2024/01/25 05:59:58;;;;;;;13.43;3.40;;;;;;;;;;6228278;23;20405;-87
2024/01/25 06:02:24;;;;;;;7.60;2.40;;;;;;;;;;6226073;23;20865;-88
2024/01/25 06:04:50;;;;;;;8.00;2.10;;;;;;;;;;6225255;23;20855;-88
2024/01/25 06:07:16;;;;;;;13.53;3.83;;;;;;;;;;6236475;23;20453;-88
2024/01/25 06:09:42;;;;;;;6.50;2.50;;;;;;;;;;6251038;23;20824;-88
2024/01/25 06:12:08;;;;;;;8.40;2.43;;;;;;;;;;6227911;23;20390;-90
2024/01/25 06:14:34;;;;;;;13.73;3.70;;;;;;;;;;6229254;23;20878;-90
2024/01/25 06:17:00;;;;;;;11.13;3.03;;;;;;;;;;6254104;23;20420;-89
2024/01/25 06:19:26;;;;;;;10.87;4.53;;;;;;;;;;6226186;23;20489;-88
2024/01/25 06:21:52;;;;;;;15.07;3.30;;;;;;;;;;6230924;23;20374;-89
2024/01/25 06:24:18;;;;;;;13.60;4.00;;;;;;;;;;6228224;23;20374;-89
2024/01/25 06:26:44;;;;;;;15.50;2.97;;;;;;;;;;6228506;23;20440;-89
2024/01/25 06:29:10;;;;;;;9.60;3.07;;;;;;;;;;6227221;23;20429;-88
2024/01/25 06:31:45;;;;;;;7.07;2.70;;;;;;;;;;6232818;23;20385;-88
2024/01/25 06:34:11;;;;;;;8.93;2.60;;;;;;;;;;6252826;22;20386;-89
2024/01/25 06:36:37;;;;;;;11.10;3.27;;;;;;;;;;6230719;23;20456;-89
2024/01/25 06:39:06;;;;;;;15.43;3.30;;;;;;;;;;6254793;23;20381;-92
2024/01/25 06:41:32;;;;;;;9.30;3.50;;;;;;;;;;6229163;23;20716;-90
2024/01/25 06:43:59;;;;;;;10.47;2.97;;;;;;;;;;6230620;23;20383;-89
2024/01/25 06:46:25;;;;;;;10.70;2.70;;;;;;;;;;6232756;22;20481;-93
2024/01/25 06:48:52;;;;;;;12.63;5.37;;;;;;;;;;6237902;22;20452;-88
2024/01/25 06:51:18;;;;;;;8.17;2.63;;;;;;;;;;6228112;23;20397;-93
2024/01/25 06:53:44;;;;;;;12.83;2.70;;;;;;;;;;6229110;23;20378;-90
2024/01/25 06:56:10;;;;;;;14.83;2.50;;;;;;;;;;6230703;23;20390;-91
2024/01/25 06:58:36;;;;;;;7.53;3.33;;;;;;;;;;6232314;23;20435;-91
2024/01/25 07:01:04;;;;;;;13.80;3.27;;;;;;;;;;6229326;22;20444;-91
2024/01/25 07:03:30;;;;;;;5.17;2.97;;;;;;;;;;6232043;23;20386;-90
2024/01/25 07:05:56;;;;;;;7.83;2.00;;;;;;;;;;6257757;23;20351;-90
2024/01/25 07:08:23;;;;;;;13.90;3.73;;;;;;;;;;6229185;23;20428;-92
2024/01/25 07:10:49;;;;;;;6.77;2.60;;;;;;;;;;6232080;23;20390;-91
2024/01/25 07:13:16;;;;;;;20.60;4.50;;;;;;;;;;6230250;23;20451;-90
2024/01/25 07:15:42;;;;;;;13.80;4.17;;;;;;;;;;6232263;23;20389;-89
2024/01/25 07:18:08;;;;;;;7.47;2.70;;;;;;;;;;6230330;23;20370;-92
2024/01/25 07:20:37;;;;;;;8.30;3.20;;;;;;;;;;6258440;23;20432;-94
2024/01/25 07:23:03;;;;;;;9.07;3.77;;;;;;;;;;6230944;23;20416;-90
2024/01/25 07:25:29;;;;;;;6.97;2.57;;;;;;;;;;6233700;23;20405;-91
2024/01/25 07:27:55;;;;;;;15.33;3.40;;;;;;;;;;6226526;23;20398;-89
2024/01/25 07:30:21;;;;;;;6.23;2.20;;;;;;;;;;6227813;23;20842;-89
2024/01/25 07:32:47;;;;;;;8.17;3.07;;;;;;;;;;6227727;23;20374;-91
2024/01/25 07:35:14;;;;;;;14.70;2.93;;;;;;;;;;6228163;23;20378;-89
2024/01/25 07:37:40;;;;;;;8.13;3.57;;;;;;;;;;6227972;23;20397;-89
2024/01/25 07:40:06;;;;;;;9.50;2.80;;;;;;;;;;6227044;23;20412;-89
2024/01/25 07:42:33;;;;;;;6.90;2.53;;;;;;;;;;6224698;23;20768;-89
2024/01/25 07:44:59;;;;;;;4.80;2.43;;;;;;;;;;6226129;23;20717;-88
2024/01/25 07:47:25;;;;;;;4.70;2.47;;;;;;;;;;6223671;23;20426;-90
2024/01/25 07:49:51;;;;;;;9.80;3.37;;;;;;;;;;6226270;23;20383;-89
2024/01/25 07:52:17;;;;;;;14.20;4.30;;;;;;;;;;6223736;23;20374;-90
2024/01/25 07:54:44;;;;;;;13.00;3.13;;;;;;;;;;6225325;23;20380;-89
2024/01/25 07:57:10;;;;;;;10.20;2.93;;;;;;;;;;6223034;23;20446;-86
2024/01/25 07:59:36;;;;;;;17.43;3.67;;;;;;;;;;6223789;23;20379;-89
2024/01/25 08:02:02;;;;;;;9.63;3.00;;;;;;;;;;6221984;23;20383;-90
2024/01/25 08:04:28;;;;;;;5.30;2.67;;;;;;;;;;6224803;23;20434;-89
2024/01/25 08:06:54;;;;;;;8.97;3.50;;;;;;;;;;6224179;23;20456;-89
2024/01/25 08:09:20;;;;;;;10.27;3.03;;;;;;;;;;6252089;23;20444;-91
2024/01/25 08:11:46;;;;;;;8.43;3.10;;;;;;;;;;6226535;23;20398;-93
2024/01/25 08:14:12;;;;;;;16.00;3.03;;;;;;;;;;6253301;23;21103;-88
2024/01/25 08:16:38;;;;;;;14.80;2.87;;;;;;;;;;6222870;23;20370;-89
2024/01/25 08:19:04;;;;;;;4.20;2.80;;;;;;;;;;6250842;23;20477;-88
2024/01/25 08:21:30;;;;;;;3.90;2.27;;;;;;;;;;6223459;23;21068;-88
2024/01/25 08:23:56;;;;;;;7.20;2.93;;;;;;;;;;6226804;23;20405;-88
2024/01/25 08:26:22;;;;;;;9.97;3.60;;;;;;;;;;6247105;23;20385;-89
2024/01/25 08:28:48;;;;;;;10.03;2.30;;;;;;;;;;6249718;23;20775;-88
2024/01/25 08:31:14;;;;;;;8.43;2.87;;;;;;;;;;6248418;23;20365;-87
2024/01/25 08:33:47;;;;;;;5.57;2.63;;;;;;;;;;6222939;23;20386;-86
2024/01/25 08:36:13;;;;;;;8.17;3.03;;;;;;;;;;6222294;23;20396;-87
2024/01/25 08:38:39;;;;;;;4.97;2.67;;;;;;;;;;6221911;22;20412;-88
2024/01/25 08:41:05;;;;;;;8.83;3.33;;;;;;;;;;6221721;23;20465;-87
2024/01/25 08:43:31;;;;;;;15.10;3.50;;;;;;;;;;6222943;23;20374;-87
2024/01/25 08:45:57;;;;;;;10.77;2.70;;;;;;;;;;6224931;23;20413;-86
2024/01/25 08:48:23;;;;;;;2.83;1.60;;;;;;;;;;6245327;23;20497;-87
2024/01/25 08:50:53;;;;;;;9.67;3.10;;;;;;;;;;6221308;23;20404;-87
2024/01/25 08:53:21;;;;;;;8.17;2.73;;;;;;;;;;6221382;23;20378;-87
2024/01/25 08:55:47;;;;;;;8.20;2.53;;;;;;;;;;6220830;23;20382;-87
2024/01/25 08:58:13;;;;;;;5.10;2.83;;;;;;;;;;6222324;23;20452;-86
2024/01/25 09:00:39;;;;;;;7.13;2.87;;;;;;;;;;6221498;23;20378;-86
2024/01/25 09:03:06;;;;;;;8.53;2.27;;;;;;;;;;6223003;23;20837;-86
2024/01/25 09:05:34;;;;;;;10.40;3.10;;;;;;;;;;6222349;23;20390;-87
2024/01/25 09:08:00;;;;;;;16.20;3.27;;;;;;;;;;6225218;23;20912;-86
2024/01/25 09:10:26;;;;;;;22.70;2.57;;;;;;;;;;6220443;23;20428;-87
2024/01/25 09:12:52;;;;;;;11.83;2.47;;;;;;;;;;6199694;23;20516;-86
2024/01/25 09:15:18;;;;;;;8.27;1.93;;;;;;;;;;6198372;23;20378;-86
2024/01/25 09:17:45;;;;;;;11.17;2.57;;;;;;;;;;6198680;23;20402;-86
2024/01/25 09:20:11;;;;;;;12.77;2.53;;;;;;;;;;6196337;23;20394;-87
2024/01/25 09:22:37;;;;;;;10.90;3.13;;;;;;;;;;6194167;23;20390;-87
2024/01/25 09:25:03;;;;;;;13.80;4.20;;;;;;;;;;6219749;23;20392;-92
2024/01/25 09:27:29;;;;;;;3.53;1.93;;;;;;;;;;6197604;23;20433;-88
2024/01/25 09:29:55;;;;;;;8.47;2.70;;;;;;;;;;6198142;23;20900;-88
2024/01/25 09:32:21;;;;;;;6.50;2.30;;;;;;;;;;6197625;23;20367;-89
2024/01/25 09:34:47;;;;;;;9.50;3.23;;;;;;;;;;6198480;23;20420;-90
2024/01/25 09:37:14;;;;;;;10.73;2.53;;;;;;;;;;6200275;23;20381;-90
2024/01/25 09:39:40;;;;;;;8.40;2.37;;;;;;;;;;6198974;23;20389;-90
2024/01/25 09:42:06;;;;;;;10.43;2.70;;;;;;;;;;6197571;23;20401;-90
2024/01/25 09:44:32;;;;;;;6.60;2.60;;;;;;;;;;6225485;23;20438;-90
2024/01/25 09:46:58;;;;;;;9.33;2.30;;;;;;;;;;6201849;23;20849;-91
2024/01/25 09:49:24;;;;;;;6.23;3.13;;;;;;;;;;6197618;23;20472;-87
2024/01/25 09:51:51;;;;;;;8.67;2.73;;;;;;;;;;6199116;23;20443;-88
2024/01/25 09:54:17;;;;;;;7.80;3.20;;;;;;;;;;6198928;23;20853;-90
2024/01/25 09:56:43;;;;;;;11.83;2.30;;;;;;;;;;6198749;23;20520;-89
2024/01/25 09:59:12;;;;;;;6.67;2.47;;;;;;;;;;6195804;23;20378;-88
2024/01/25 10:01:38;;;;;;;13.30;2.67;;;;;;;;;;6198082;23;20389;-89
2024/01/25 10:04:07;;;;;;;9.30;2.47;;;;;;;;;;6195621;23;20951;-88
2024/01/25 10:06:36;;;;;;;8.17;3.17;;;;;;;;;;6223794;23;20366;-88
2024/01/25 10:09:03;;;;;;;9.40;2.80;;;;;;;;;;6196678;23;20406;-88
2024/01/25 10:11:35;;;;;;;4.27;2.50;;;;;;;;;;6208413;23;20402;-88
2024/01/25 10:14:01;;;;;;;8.83;3.10;;;;;;;;;;6224657;23;20385;-87
2024/01/25 10:16:27;;;;;;;9.63;2.13;;;;;;;;;;6224515;23;20375;-88
2024/01/25 10:18:53;;;;;;;8.53;2.70;;;;;;;;;;6223178;23;20390;-88
2024/01/25 10:21:19;;;;;;;14.50;3.10;;;;;;;;;;6247349;23;20366;-88
2024/01/25 10:23:48;;;;;;;16.47;4.23;;;;;;;;;;6224139;23;20366;-89
2024/01/25 10:26:14;;;;;;;10.50;2.30;;;;;;;;;;6223890;23;20377;-87
2024/01/25 10:28:40;;;;;;;14.20;2.70;;;;;;;;;;6223783;23;20886;-87
2024/01/25 10:31:07;;;;;;;13.47;2.83;;;;;;;;;;6221880;23;20683;-87
2024/01/25 10:33:33;;;;;;;10.40;3.20;;;;;;;;;;6247777;23;20409;-86
2024/01/25 10:36:02;;;;;;;8.17;2.07;;;;;;;;;;6223620;23;20374;-88
2024/01/25 10:38:31;;;;;;;6.60;2.43;;;;;;;;;;6228926;23;20450;-88
2024/01/25 10:40:58;;;;;;;6.87;2.30;;;;;;;;;;6223892;23;20374;-89
2024/01/25 10:43:25;;;;;;;14.97;2.63;;;;;;;;;;6224363;23;20385;-89
2024/01/25 10:45:55;;;;;;;8.87;3.40;;;;;;;;;;6224948;22;20401;-92
2024/01/25 10:48:23;;;;;;;5.57;2.37;;;;;;;;;;6233556;23;20421;-93
2024/01/25 10:50:49;;;;;;;8.53;1.80;;;;;;;;;;6257329;23;20362;-93
2024/01/25 10:53:18;;;;;;;7.50;2.37;;;;;;;;;;6229698;23;20405;-94
2024/01/25 10:56:02;;;;;;;4.53;2.23;;;;;;;;;;6249491;23;20740;-92
2024/01/25 10:58:36;;;;;;;3.60;2.13;;;;;;;;;;6226341;22;20867;-91
2024/01/25 11:01:03;;;;;;;7.27;2.40;;;;;;;;;;6203252;23;20390;-89
2024/01/25 11:03:32;;;;;;;8.00;1.80;;;;;;;;;;6201527;23;20409;-89
2024/01/25 11:06:10;;;;;;;4.10;2.10;;;;;;;;;;6205657;23;20381;-91
2024/01/25 11:08:39;;;;;;;7.10;2.10;;;;;;;;;;6230950;23;20444;-92
2024/01/25 11:11:09;;;;;;;8.40;2.33;;;;;;;;;;6206838;23;20485;-92
2024/01/25 11:13:35;;;;;;;4.20;1.93;;;;;;;;;;6201999;23;20407;-90
2024/01/25 11:16:14;;;;;;;10.70;2.30;;;;;;;;;;6227251;23;20397;-90
2024/01/25 11:18:50;;;;;;;9.83;2.30;;;;;;;;;;6229368;22;20378;-90
2024/01/25 11:21:23;;;;;;;6.67;2.40;;;;;;;;;;6228525;23;20374;-92
2024/01/25 11:24:00;;;;;;;6.23;2.23;;;;;;;;;;6208730;22;21139;-92
2024/01/25 11:26:26;;;;;;;7.80;1.47;;;;;;;;;;6233805;22;20468;-95
2024/01/25 11:28:52;;;;;;;9.27;2.10;;;;;;;;;;6200073;23;20418;-90
2024/01/25 11:31:20;;;;;;;2.50;1.70;;;;;;;;;;6210304;23;20393;-90
2024/01/25 11:36:23;;;;;;;6.67;2.20;;;;;;;;;;6160698;22;20444;-92
2024/01/25 11:39:15;;;;;;;8.13;3.07;;;;;;;;;;6164862;23;20514;-91
2024/01/25 11:44:27;;;;;;;7.07;2.90;;;;;;;;;;6188059;22;20434;-92
2024/01/25 11:47:13;;;;;;;2.97;1.90;;;;;;;;;;6216339;23;20504;-91
2024/01/25 11:54:51;;;;;;;11.53;3.03;;;;;;;;;;6229449;22;20472;-90
2024/01/25 11:57:22;;;;;;;5.00;2.57;;;;;;;;;;6163578;22;20453;-91
2024/01/25 11:59:57;;;;;;;10.87;2.40;;;;;;;;;;6122939;23;20416;-90
2024/01/25 12:02:26;;;;;;;4.23;1.60;;;;;;;;;;6181245;22;21318;-92
2024/01/25 12:07:28;;;;;;;3.20;1.83;;;;;;;;;;6170731;22;20481;-91
2024/01/25 12:15:08;;;;;;;5.80;1.90;;;;;;;;;;6160274;22;20426;-90
2024/01/25 12:17:38;;;;;;;10.33;3.37;;;;;;;;;;6216345;22;20442;-90
2024/01/25 12:27:52;;;;;;;5.70;2.27;;;;;;;;;;6148405;22;21023;-91
2024/01/25 12:30:18;;;;;;;7.70;2.40;;;;;;;;;;6202021;23;20387;-91
2024/01/25 12:32:46;;;;;;;4.93;1.27;;;;;;;;;;6199137;23;20403;-93
2024/01/25 12:35:14;;;;;;;7.10;1.97;;;;;;;;;;6169599;23;20402;-91
2024/01/25 12:37:41;;;;;;;6.37;2.20;;;;;;;;;;6169844;23;20448;-92
2024/01/25 12:40:07;;;;;;;8.80;2.23;;;;;;;;;;6151128;23;20369;-95
2024/01/25 12:42:33;;;;;;;6.63;2.37;;;;;;;;;;6107982;23;20402;-94
2024/01/25 12:45:00;;;;;;;6.60;1.73;;;;;;;;;;6080073;23;20374;-89
2024/01/25 12:47:26;;;;;;;6.17;2.07;;;;;;;;;;6084544;23;20445;-91
2024/01/25 12:50:04;;;;;;;2.63;1.63;;;;;;;;;;6083101;23;20824;-90
2024/01/25 12:52:30;;;;;;;2.87;1.30;;;;;;;;;;6084780;23;20391;-89
2024/01/25 12:54:56;;;;;;;10.20;2.60;;;;;;;;;;6080943;23;20390;-92
2024/01/25 12:57:22;;;;;;;10.43;2.33;;;;;;;;;;6082442;23;20399;-90
2024/01/25 12:59:49;;;;;;;3.70;2.37;;;;;;;;;;6075428;23;20458;-92
2024/01/25 13:02:15;;;;;;;3.03;2.17;;;;;;;;;;6079569;23;20395;-93
2024/01/25 13:04:41;;;;;;;11.50;2.50;;;;;;;;;;6076524;23;20386;-93
2024/01/25 13:07:07;;;;;;;3.17;1.87;;;;;;;;;;6109532;23;20386;-91
2024/01/25 13:09:46;;;;;;;5.63;1.70;;;;;;;;;;6139560;23;20510;-93
2024/01/25 13:12:12;;;;;;;5.20;1.87;;;;;;;;;;6138651;23;20381;-90
2024/01/25 13:14:38;;;;;;;7.33;2.03;;;;;;;;;;6169136;23;20533;-90
2024/01/25 13:17:07;;;;;;;7.80;1.70;;;;;;;;;;6165671;23;20396;-94
2024/01/25 13:20:12;;;;;;;5.77;2.17;;;;;;;;;;6137048;23;20392;-92
2024/01/25 13:22:39;;;;;;;8.10;2.60;;;;;;;;;;6152412;22;20397;-92
2024/01/25 13:25:06;;;;;;;5.53;2.80;;;;;;;;;;6231711;22;20380;-90
2024/01/25 13:27:37;;;;;;;10.57;2.73;;;;;;;;;;6206476;23;20482;-93
2024/01/25 13:30:05;;;;;;;9.60;1.90;;;;;;;;;;6208692;23;20395;-90
2024/01/25 13:32:31;;;;;;;9.70;1.90;;;;;;;;;;6200856;23;20398;-90
2024/01/25 13:34:57;;;;;;;8.10;2.50;;;;;;;;;;6180294;23;20443;-91
2024/01/25 13:37:25;;;;;;;4.37;2.10;;;;;;;;;;6209388;23;20413;-90
2024/01/25 13:39:51;;;;;;;8.13;1.93;;;;;;;;;;6210845;23;20419;-92
2024/01/25 13:42:18;;;;;;;4.57;2.53;;;;;;;;;;6184654;23;20383;-91
2024/01/25 13:44:53;;;;;;;7.87;2.50;;;;;;;;;;6207055;23;20387;-91
2024/01/25 13:47:20;;;;;;;6.30;2.33;;;;;;;;;;6196420;23;20489;-91
2024/01/25 13:49:47;;;;;;;6.50;2.37;;;;;;;;;;6176150;23;20372;-92
2024/01/25 13:52:21;;;;;;;3.90;1.90;;;;;;;;;;6145427;23;20365;-90
2024/01/25 13:54:50;;;;;;;10.80;2.30;;;;;;;;;;6168506;23;20433;-92
2024/01/25 13:57:17;;;;;;;7.93;2.10;;;;;;;;;;6040759;23;20411;-93
2024/01/25 13:59:43;;;;;;;6.30;2.60;;;;;;;;;;6087132;23;20385;-90
2024/01/25 14:02:09;;;;;;;3.60;1.60;;;;;;;;;;6058792;23;20397;-93
2024/01/25 14:04:39;;;;;;;7.80;2.63;;;;;;;;;;6010946;23;20438;-91
2024/01/25 14:07:25;;;;;;;5.53;3.30;;;;;;;;;;6058439;23;20403;-90
2024/01/25 14:10:02;;;;;;;5.37;2.07;;;;;;;;;;6087467;23;20383;-91
2024/01/25 14:12:39;;;;;;;4.43;1.83;;;;;;;;;;6009346;23;20377;-91
2024/01/25 14:15:26;;;;;;;7.50;1.67;;;;;;;;;;5984366;23;20381;-93
2024/01/25 14:18:00;;;;;;;9.43;2.00;;;;;;;;;;6005245;23;20397;-93
2024/01/25 14:20:26;;;;;;;3.10;1.73;;;;;;;;;;5998524;23;20397;-92
2024/01/25 14:22:53;;;;;;;4.57;3.20;;;;;;;;;;6014562;23;20380;-92
2024/01/25 14:25:19;;;;;;;4.40;1.83;;;;;;;;;;6034851;23;20439;-91
2024/01/25 14:27:48;;;;;;;4.53;2.10;;;;;;;;;;6019277;23;20423;-90
2024/01/25 14:30:15;;;;;;;4.00;1.70;;;;;;;;;;5979668;23;20429;-93
2024/01/25 14:32:49;;;;;;;6.77;2.17;;;;;;;;;;5986297;23;20482;-93
2024/01/25 14:35:27;;;;;;;5.50;1.90;;;;;;;;;;6005341;23;20454;-93
2024/01/25 14:37:54;;;;;;;5.37;2.27;;;;;;;;;;6027142;23;20408;-93
2024/01/25 14:40:26;;;;;;;7.23;1.87;;;;;;;;;;6005824;23;20396;-90
2024/01/25 14:42:55;;;;;;;4.17;1.57;;;;;;;;;;5967678;23;20388;-93
2024/01/25 14:45:24;;;;;;;5.43;2.30;;;;;;;;;;6026212;23;20416;-92
2024/01/25 14:47:54;;;;;;;7.27;1.77;;;;;;;;;;6005501;23;20428;-93
2024/01/25 14:50:20;;;;;;;3.17;1.97;;;;;;;;;;6029889;23;20481;-91
2024/01/25 14:52:46;;;;;;;6.37;1.50;;;;;;;;;;5978302;23;20453;-93
2024/01/25 14:55:13;;;;;;;4.07;1.73;;;;;;;;;;5978232;23;20396;-93
2024/01/25 14:57:39;;;;;;;14.30;3.10;;;;;;;;;;6029779;23;20381;-91
2024/01/25 15:00:06;;;;;;;5.47;2.43;;;;;;;;;;6030814;23;20415;-91
2024/01/25 15:02:34;;;;;;;5.33;1.63;;;;;;;;;;6029715;23;20389;-93
2024/01/25 15:05:01;;;;;;;4.93;1.77;;;;;;;;;;6033077;23;20460;-93
2024/01/25 15:07:29;;;;;;;8.80;2.10;;;;;;;;;;6069493;23;20432;-91
2024/01/25 15:09:57;;;;;;;5.10;1.53;;;;;;;;;;6142734;23;20390;-92